Back to Top

Language: 

My Weather Underground Personal Weather Station Historical Data with Graphs...

Delerius Weather Station Historical Data
Daily Summary for January 14, 2018 Units:  Metric    English   Both
« Previous Day
Next Day »
Daily Weekly Monthly Yearly Custom
  High: Low: Average:
Temperature: 4.1 °C 2.6 °C 3.5 °C
Dew Point: 2.4 °C 0.5 °C 1.4 °C
Humidity: 91 % 83 % 86 %
Wind Speed: 22.5 km/h 0 km/h 11.9 km/h
Wind Gust: 40.2 km/h - -
Wind:- - South
Pressure: 1020.2 hPa 1005 hPa -
Precipitation: 0.25 mm    
Historical Graphs
 
 
Tabular Data for January 14, 2018
Time Temperature Dew Point Pressure Wind Wind Speed Wind Gust Humidity Rainfall Rate (Hourly) solar Conditions
00:05 4.1 °C 2.1 °C 1019.9 hPa SE 8 km/h 12.9 km/h 87 % 0 mm 0 W/m2
00:12 4.1 °C 2.3 °C 1019.9 hPa SE 3.2 km/h 9.7 km/h 88 % 0 mm 0 W/m2
00:22 4.1 °C 2.3 °C 1019.9 hPa SE 8 km/h 11.3 km/h 88 % 0 mm 0 W/m2
00:30 4.1 °C 2.3 °C 1019.9 hPa SSE 4.8 km/h 11.3 km/h 88 % 0 mm 0 W/m2
00:42 4.1 °C 2.3 °C 1019.9 hPa SSE 8 km/h 11.3 km/h 88 % 0 mm 0 W/m2
00:51 4.1 °C 2.3 °C 1020.2 hPa SE 9.7 km/h 14.5 km/h 88 % 0 mm 0 W/m2
01:06 4.1 °C 2.1 °C 1019.9 hPa SSE 6.4 km/h 9.7 km/h 87 % 0 mm 0 W/m2
01:16 4.1 °C 2.1 °C 1019.9 hPa SE 8 km/h 12.9 km/h 87 % 0 mm 0 W/m2
01:29 4.1 °C 2.1 °C 1019.9 hPa Calm   8 km/h 87 % 0 mm 0 W/m2
01:36 4.1 °C 2.1 °C 1019.5 hPa ESE 1.6 km/h 6.4 km/h 87 % 0 mm 0 W/m2
01:43 4.1 °C 2.1 °C 1019.9 hPa SSE 3.2 km/h 8 km/h 87 % 0 mm 0 W/m2
01:52 4.1 °C 2.3 °C 1019.5 hPa SE 8 km/h 12.9 km/h 88 % 0 mm 0 W/m2
02:03 4.1 °C 2.3 °C 1019.5 hPa SE 6.4 km/h 12.9 km/h 88 % 0 mm 0 W/m2
02:11 4.1 °C 2.3 °C 1019.5 hPa SE 8 km/h 11.3 km/h 88 % 0 mm 0 W/m2
02:18 4.1 °C 2.3 °C 1019.5 hPa SE 4.8 km/h 9.7 km/h 88 % 0 mm 0 W/m2
02:55 4.1 °C 2.3 °C 1019.2 hPa SE 9.7 km/h 14.5 km/h 88 % 0 mm 0 W/m2
03:01 4.1 °C 2.3 °C 1019.5 hPa SE 4.8 km/h 9.7 km/h 88 % 0 mm 0 W/m2
03:17 4.1 °C 2.3 °C 1019.2 hPa SE 8 km/h 12.9 km/h 88 % 0 mm 0 W/m2
03:24 4.1 °C 2.3 °C 1019.5 hPa SE 8 km/h 12.9 km/h 88 % 0 mm 0 W/m2
03:45 4.1 °C 2.1 °C 1019.2 hPa SSE 12.9 km/h 16.1 km/h 87 % 0 mm 0 W/m2
03:50 4.1 °C 2.1 °C 1019.2 hPa SSE 11.3 km/h 14.5 km/h 87 % 0 mm 0 W/m2
03:55 4.1 °C 2.1 °C 1019.2 hPa SE 11.3 km/h 17.7 km/h 87 % 0 mm 0 W/m2
04:08 4.1 °C 1.8 °C 1019.2 hPa SSE 9.7 km/h 20.9 km/h 85 % 0 mm 0 W/m2
04:26 4.1 °C 1.9 °C 1019.2 hPa South 4.8 km/h 9.7 km/h 86 % 0 mm 0 W/m2
04:35 4.1 °C 1.9 °C 1019.5 hPa South 8 km/h 12.9 km/h 86 % 0 mm 0 W/m2
04:40 4.1 °C 1.8 °C 1019.2 hPa SSE 6.4 km/h 11.3 km/h 85 % 0 mm 0 W/m2
04:45 4.1 °C 1.8 °C 1019.2 hPa SSE 8 km/h 12.9 km/h 85 % 0 mm 0 W/m2
05:13 4.1 °C 1.8 °C 1019.2 hPa SSE 8 km/h 12.9 km/h 85 % 0 mm 0 W/m2
05:20 4.1 °C 1.8 °C 1019.2 hPa SSE 9.7 km/h 14.5 km/h 85 % 0 mm 0 W/m2
05:25 4 °C 1.9 °C 1018.8 hPa South 9.7 km/h 16.1 km/h 86 % 0 mm 0 W/m2
05:32 4 °C 1.9 °C 1019.2 hPa South 8 km/h 16.1 km/h 86 % 0 mm 0 W/m2
05:55 3.9 °C 1.8 °C 1019.2 hPa SSE 11.3 km/h 24.1 km/h 86 % 0 mm 0 W/m2
06:18 3.9 °C 1.9 °C 1018.8 hPa SE 6.4 km/h 9.7 km/h 87 % 0 mm 0 W/m2
06:47 3.7 °C 1.6 °C 1018.8 hPa SE 11.3 km/h 16.1 km/h 86 % 0 mm 0 W/m2
07:21 3.6 °C 1.6 °C 1018.8 hPa SE 8 km/h 12.9 km/h 87 % 0 mm 0 W/m2
07:32 3.6 °C 1.8 °C 1018.8 hPa SE 9.7 km/h 14.5 km/h 88 % 0 mm 0 W/m2
07:41 3.5 °C 1.7 °C 1018.8 hPa SSE 11.3 km/h 19.3 km/h 88 % 0 mm 0 W/m2
07:46 3.4 °C 1.6 °C 1018.8 hPa SSE 11.3 km/h 17.7 km/h 88 % 0 mm 0 W/m2
07:51 3.4 °C 1.6 °C 1019.2 hPa SSE 11.3 km/h 16.1 km/h 88 % 0 mm 0 W/m2
08:07 3.4 °C 1.4 °C 1019.2 hPa SSE 12.9 km/h 20.9 km/h 87 % 0 mm 0 W/m2
08:16 3.4 °C 1.4 °C 1019.5 hPa SSW 8 km/h 14.5 km/h 87 % 0 mm 0 W/m2
08:28 3.4 °C 1.3 °C 1019.5 hPa South 8 km/h 14.5 km/h 86 % 0 mm 0 W/m2
08:53 3.3 °C 1.2 °C 1019.9 hPa SSW 8 km/h 12.9 km/h 86 % 0 mm 5 W/m2
09:04 3.3 °C 1.2 °C 1019.9 hPa South 8 km/h 16.1 km/h 86 % 0 mm 7 W/m2
09:11 3.3 °C 1.2 °C 1019.9 hPa SSW 6.4 km/h 9.7 km/h 86 % 0 mm 9 W/m2
09:20 3.4 °C 1.3 °C 1019.9 hPa South 8 km/h 14.5 km/h 86 % 0 mm 16 W/m2
09:27 3.4 °C 1.3 °C 1019.9 hPa SSE 3.2 km/h 9.7 km/h 86 % 0 mm 18 W/m2
09:33 3.4 °C 1.3 °C 1019.9 hPa SSE 4.8 km/h 11.3 km/h 86 % 0 mm 18 W/m2
09:48 3.4 °C 1.3 °C 1019.5 hPa SSE 9.7 km/h 14.5 km/h 86 % 0 mm 19 W/m2
10:01 3.5 °C 1.2 °C 1019.5 hPa SSE 8 km/h 12.9 km/h 85 % 0 mm 28 W/m2
10:09 3.5 °C 1.2 °C 1019.2 hPa SSE 9.7 km/h 12.9 km/h 85 % 0 mm 32 W/m2
10:24 3.6 °C 1.2 °C 1018.8 hPa SE 16.1 km/h 22.5 km/h 84 % 0 mm 39 W/m2
10:37 3.6 °C 1 °C 1018.8 hPa SE 9.7 km/h 20.9 km/h 83 % 0 mm 47 W/m2
10:46 3.6 °C 1 °C 1018.8 hPa SSE 12.9 km/h 20.9 km/h 83 % 0 mm 47 W/m2
11:05 3.6 °C 1 °C 1018.2 hPa SSE 16.1 km/h 24.1 km/h 83 % 0 mm 53 W/m2
11:12 3.6 °C 1 °C 1018.5 hPa SSE 12.9 km/h 17.7 km/h 83 % 0 mm 49 W/m2
11:26 3.7 °C 1.1 °C 1018.5 hPa SSE 11.3 km/h 17.7 km/h 83 % 0 mm 53 W/m2
11:34 3.7 °C 1.1 °C 1018.2 hPa SE 12.9 km/h 20.9 km/h 83 % 0 mm 53 W/m2
11:49 3.7 °C 1.1 °C 1018.2 hPa SSW 12.9 km/h 22.5 km/h 83 % 0 mm 44 W/m2
12:01 3.7 °C 1.1 °C 1018.2 hPa South 12.9 km/h 20.9 km/h 83 % 0 mm 42 W/m2
12:11 3.7 °C 1.1 °C 1017.8 hPa South 12.9 km/h 20.9 km/h 83 % 0 mm 46 W/m2
12:28 3.8 °C 1.2 °C 1017.8 hPa South 9.7 km/h 16.1 km/h 83 % 0 mm 60 W/m2
12:36 3.8 °C 1.2 °C 1017.8 hPa SSW 14.5 km/h 20.9 km/h 83 % 0 mm 56 W/m2
12:54 3.8 °C 1.2 °C 1017.2 hPa South 9.7 km/h 17.7 km/h 83 % 0 mm 56 W/m2
13:10 3.8 °C 1.2 °C 1016.8 hPa SSW 14.5 km/h 24.1 km/h 83 % 0 mm 56 W/m2
13:22 3.7 °C 1.1 °C 1016.5 hPa SSE 16.1 km/h 25.7 km/h 83 % 0 mm 53 W/m2
13:29 3.8 °C 1.3 °C 1016.5 hPa SSE 9.7 km/h 20.9 km/h 84 % 0 mm 56 W/m2
13:47 3.8 °C 1.3 °C 1016.5 hPa SSW 8 km/h 14.5 km/h 84 % 0 mm 65 W/m2
13:53 3.8 °C 1.3 °C 1016.5 hPa SSW 9.7 km/h 14.5 km/h 84 % 0 mm 56 W/m2
14:01 3.8 °C 1.3 °C 1016.1 hPa SSW 12.9 km/h 22.5 km/h 84 % 0 mm 51 W/m2
14:09 3.7 °C 1.1 °C 1015.8 hPa SSW 20.9 km/h 33.8 km/h 83 % 0 mm 46 W/m2
14:14 3.6 °C 1 °C 1015.8 hPa South 17.7 km/h 32.2 km/h 83 % 0 mm 39 W/m2
14:24 3.6 °C 1.2 °C 1015.5 hPa South 11.3 km/h 19.3 km/h 84 % 0 mm 35 W/m2
14:33 3.5 °C 1.1 °C 1015.1 hPa South 12.9 km/h 25.7 km/h 84 % 0 mm 40 W/m2
14:40 3.5 °C 1.1 °C 1015.5 hPa SSW 17.7 km/h 35.4 km/h 84 % 0 mm 33 W/m2
14:45 3.4 °C 0.9 °C 1015.5 hPa SW 16.1 km/h 30.6 km/h 84 % 0 mm 28 W/m2
14:55 3.4 °C 0.9 °C 1015.5 hPa SSW 16.1 km/h 30.6 km/h 84 % 0 mm 23 W/m2
15:23 3.2 °C 0.8 °C 1014.8 hPa South 16.1 km/h 32.2 km/h 84 % 0 mm 16 W/m2
15:39 3.1 °C 0.7 °C 1014.8 hPa SSW 22.5 km/h 33.8 km/h 84 % 0 mm 12 W/m2
15:49 3.1 °C 0.7 °C 1014.8 hPa SSW 20.9 km/h 40.2 km/h 84 % 0 mm 7 W/m2
16:08 3.1 °C 0.8 °C 1014.8 hPa SW 14.5 km/h 24.1 km/h 85 % 0 mm 0 W/m2
16:16 3.1 °C 0.8 °C 1014.8 hPa SW 17.7 km/h 30.6 km/h 85 % 0 mm 0 W/m2
16:33 3 °C 0.7 °C 1014.4 hPa SSW 16.1 km/h 25.7 km/h 85 % 0 mm 0 W/m2
16:51 2.9 °C 0.6 °C 1014.4 hPa South 14.5 km/h 20.9 km/h 85 % 0 mm 0 W/m2
16:58 2.9 °C 0.6 °C 1014.4 hPa South 12.9 km/h 20.9 km/h 85 % 0 mm 0 W/m2
17:10 2.9 °C 0.6 °C 1014.1 hPa SSE 9.7 km/h 14.5 km/h 85 % 0 mm 0 W/m2
17:17 2.9 °C 0.6 °C 1014.1 hPa SW 1.6 km/h 6.4 km/h 85 % 0 mm 0 W/m2
17:23 2.9 °C 0.6 °C 1014.1 hPa SSW 14.5 km/h 22.5 km/h 85 % 0 mm 0 W/m2
17:32 2.8 °C 0.5 °C 1013.8 hPa SW 14.5 km/h 24.1 km/h 85 % 0 mm 0 W/m2
17:42 2.8 °C 0.5 °C 1013.8 hPa SSW 16.1 km/h 30.6 km/h 85 % 0 mm 0 W/m2
17:47 2.8 °C 0.5 °C 1013.8 hPa SW 16.1 km/h 29 km/h 85 % 0 mm 0 W/m2
17:52 2.8 °C 0.5 °C 1013.8 hPa SW 19.3 km/h 32.2 km/h 85 % 0 mm 0 W/m2
18:09 2.8 °C 0.5 °C 1013.4 hPa SSW 20.9 km/h 30.6 km/h 85 % 0 mm 0 W/m2
18:26 2.8 °C 0.7 °C 1013.4 hPa SSW 17.7 km/h 22.5 km/h 86 % 0 mm 0 W/m2
18:33 2.8 °C 0.7 °C 1013.1 hPa South 14.5 km/h 17.7 km/h 86 % 0 mm 0 W/m2
18:41 2.7 °C 0.6 °C 1012.8 hPa South 12.9 km/h 22.5 km/h 86 % 0 mm 0 W/m2
18:47 2.7 °C 0.6 °C 1012.8 hPa South 12.9 km/h 22.5 km/h 86 % 0 mm 0 W/m2
18:58 2.7 °C 0.6 °C 1012.8 hPa South 14.5 km/h 25.7 km/h 86 % 0 mm 0 W/m2
19:16 2.7 °C 0.6 °C 1012.1 hPa South 17.7 km/h 30.6 km/h 86 % 0 mm 0 W/m2
19:30 2.6 °C 0.7 °C 1011.7 hPa South 17.7 km/h 33.8 km/h 87 % 0 mm 0 W/m2
19:38 2.7 °C 0.8 °C 1011.7 hPa South 16.1 km/h 30.6 km/h 87 % 0 mm 0 W/m2
19:44 2.7 °C 0.8 °C 1011.7 hPa South 16.1 km/h 25.7 km/h 87 % 0 mm 0 W/m2
19:49 2.7 °C 0.8 °C 1011.4 hPa South 11.3 km/h 24.1 km/h 87 % 0 mm 0 W/m2
19:55 2.7 °C 0.8 °C 1011.1 hPa South 16.1 km/h 25.7 km/h 87 % 0 mm 0 W/m2
20:00 2.7 °C 0.8 °C 1011.1 hPa South 17.7 km/h 25.7 km/h 87 % 0 mm 0 W/m2
20:06 2.8 °C 0.8 °C 1011.1 hPa SSE 9.7 km/h 20.9 km/h 87 % 0 mm 0 W/m2
20:11 2.8 °C 0.8 °C 1010.7 hPa SSW 14.5 km/h 25.7 km/h 87 % 0 mm 0 W/m2
20:19 2.8 °C 0.8 °C 1010.7 hPa SSW 12.9 km/h 24.1 km/h 87 % 0 mm 0 W/m2
20:27 2.8 °C 0.8 °C 1010.4 hPa SSW 11.3 km/h 24.1 km/h 87 % 0 mm 0 W/m2
20:47 2.9 °C 0.9 °C 1010 hPa SSW 14.5 km/h 24.1 km/h 87 % 0 mm 0 W/m2
20:55 3 °C 1.1 °C 1009.7 hPa SSW 16.1 km/h 25.7 km/h 87 % 0 mm 0 W/m2
21:09 3.1 °C 1.2 °C 1009.4 hPa SW 12.9 km/h 25.7 km/h 87 % 0 mm 0 W/m2
21:14 3.1 °C 1.2 °C 1009 hPa SSW 17.7 km/h 30.6 km/h 87 % 0 mm 0 W/m2
21:22 3.1 °C 1.2 °C 1009 hPa SSW 17.7 km/h 25.7 km/h 87 % 0 mm 0 W/m2
21:32 3.2 °C 1.2 °C 1008.7 hPa South 17.7 km/h 37 km/h 87 % 0 mm 0 W/m2
21:41 3.3 °C 1.3 °C 1008.7 hPa SSW 16.1 km/h 25.7 km/h 87 % 0 mm 0 W/m2
22:06 3.5 °C 1.6 °C 1008 hPa SSW 14.5 km/h 29 km/h 87 % 0 mm 0 W/m2
22:18 3.6 °C 1.6 °C 1007.7 hPa SSW 14.5 km/h 22.5 km/h 87 % 0 mm 0 W/m2
22:23 3.6 °C 1.6 °C 1007.7 hPa SSW 14.5 km/h 19.3 km/h 87 % 0 mm 0 W/m2
22:30 3.7 °C 1.9 °C 1007.3 hPa SSW 16.1 km/h 30.6 km/h 88 % 0 mm 0 W/m2
22:38 3.7 °C 1.9 °C 1007.3 hPa SSW 12.9 km/h 24.1 km/h 88 % 0 mm 0 W/m2
22:43 3.7 °C 1.9 °C 1007 hPa SSW 12.9 km/h 25.7 km/h 88 % 0 mm 0 W/m2
22:53 3.8 °C 2 °C 1007 hPa South 14.5 km/h 30.6 km/h 88 % 0 mm 0 W/m2
23:02 3.8 °C 2 °C 1006.7 hPa SSW 12.9 km/h 20.9 km/h 88 % 0 mm 0 W/m2
23:10 3.8 °C 2 °C 1006.3 hPa South 14.5 km/h 24.1 km/h 88 % 0 mm 0 W/m2
23:16 3.7 °C 2.1 °C 1006.3 hPa SSE 11.3 km/h 19.3 km/h 89 % 0 mm 0 W/m2
23:23 3.7 °C 2.1 °C 1006 hPa SSE 12.9 km/h 22.5 km/h 89 % 0 mm 0 W/m2
23:28 3.7 °C 2.2 °C 1005.6 hPa SSE 14.5 km/h 22.5 km/h 90 % 0 mm 0 W/m2
23:35 3.7 °C 2.2 °C 1005.6 hPa SSE 16.1 km/h 22.5 km/h 90 % 0 mm 0 W/m2
23:40 3.7 °C 2.2 °C 1005.3 hPa SSE 11.3 km/h 17.7 km/h 91 % 0.25 mm 0 W/m2
23:51 3.7 °C 2.4 °C 1005 hPa SSE 12.9 km/h 17.7 km/h 91 % 0.25 mm 0 W/m2
Delerius-Weather
Compliments of Weather Underground - 1.5 mb

Data updates at regular intervals.